Time;durP1;ratioP1;P1;durP2;ratioP2;P2;SDS_P1;SDS_P2;PMS_P1;PMS_P2;Temp;Humidity;BMP_temperature;BMP_pressure;BME280_temperature;BME280_humidity;BME280_pressure;Samples;Min_cycle;Max_cycle;Signal;HPM_P1;HPM_P2
2022/05/18 00:00:37;;;;;;;1.30;1.30;;;22.20;69.20;;;;;;5048043;28;44108;-71
2022/05/18 00:03:09;;;;;;;1.20;1.20;;;22.10;68.90;;;;;;5048229;28;43293;-71
2022/05/18 00:05:38;;;;;;;1.27;1.27;;;22.00;69.00;;;;;;5048513;28;44036;-70
2022/05/18 00:08:06;;;;;;;1.00;1.00;;;22.00;69.20;;;;;;5029213;28;44104;-69
2022/05/18 00:10:37;;;;;;;1.30;1.30;;;21.90;69.30;;;;;;5047495;28;44104;-70
2022/05/18 00:13:06;;;;;;;1.40;1.40;;;21.90;69.80;;;;;;5047993;28;43917;-70
2022/05/18 00:15:34;;;;;;;1.20;1.20;;;21.90;71.80;;;;;;5048386;28;43779;-71
2022/05/18 00:18:02;;;;;;;1.23;1.23;;;22.00;72.20;;;;;;5047861;28;44087;-70
2022/05/18 00:20:31;;;;;;;1.20;1.20;;;22.20;71.80;;;;;;5047808;28;43940;-69
2022/05/18 00:23:01;;;;;;;1.20;1.20;;;22.40;70.70;;;;;;5048016;28;43784;-69
2022/05/18 00:25:30;;;;;;;1.10;1.10;;;22.50;69.70;;;;;;5029648;28;43971;-69
2022/05/18 00:27:58;;;;;;;1.50;1.23;;;22.60;69.20;;;;;;5047688;28;45122;-71
2022/05/18 00:30:27;;;;;;;1.23;1.23;;;22.50;69.30;;;;;;5029429;28;43482;-70
2022/05/18 00:32:55;;;;;;;1.20;1.20;;;22.50;69.20;;;;;;5047979;28;43403;-70
2022/05/18 00:35:25;;;;;;;1.10;1.10;;;22.40;68.80;;;;;;5047986;28;43968;-69
2022/05/18 00:37:54;;;;;;;1.20;1.20;;;22.20;68.50;;;;;;5047433;28;43982;-70
2022/05/18 00:40:22;;;;;;;1.40;1.40;;;22.20;68.70;;;;;;5047001;28;43396;-70
2022/05/18 00:42:50;;;;;;;1.20;1.20;;;22.10;68.90;;;;;;5047614;28;43420;-70
2022/05/18 00:45:18;;;;;;;1.10;1.10;;;22.10;71.60;;;;;;5047895;28;44004;-71
2022/05/18 00:47:47;;;;;;;1.20;1.20;;;22.10;71.70;;;;;;5047262;28;45167;-70
2022/05/18 00:50:17;;;;;;;1.33;1.33;;;22.20;70.60;;;;;;5047339;28;43922;-69
2022/05/18 00:52:46;;;;;;;1.43;1.40;;;22.30;70.30;;;;;;5022530;28;43448;-70
2022/05/18 00:55:17;;;;;;;1.10;1.10;;;22.30;70.20;;;;;;5041236;28;43839;-70
2022/05/18 00:57:47;;;;;;;1.20;1.20;;;22.20;69.90;;;;;;5041206;28;43921;-69
2022/05/18 01:00:16;;;;;;;1.27;1.27;;;22.20;69.20;;;;;;5047307;28;43920;-69
2022/05/18 01:02:46;;;;;;;1.30;1.30;;;22.10;68.90;;;;;;5047269;28;43994;-69
2022/05/18 01:05:15;;;;;;;1.10;1.10;;;22.00;69.00;;;;;;5047689;28;43806;-69
2022/05/18 01:07:45;;;;;;;1.10;1.10;;;22.00;69.30;;;;;;5046887;28;43908;-70
2022/05/18 01:10:13;;;;;;;1.13;1.13;;;21.90;69.30;;;;;;5047027;28;44119;-69
2022/05/18 01:12:42;;;;;;;1.30;1.30;;;21.90;70.00;;;;;;5047401;28;43904;-70
2022/05/18 01:15:11;;;;;;;1.10;1.10;;;21.90;72.00;;;;;;5047942;28;43975;-69
2022/05/18 01:17:40;;;;;;;1.30;1.30;;;22.00;72.00;;;;;;5047061;28;43961;-70
2022/05/18 01:20:09;;;;;;;1.20;1.20;;;22.20;71.40;;;;;;5045570;28;44300;-69
2022/05/18 01:22:42;;;;;;;1.20;1.20;;;22.40;70.40;;;;;;5029035;28;43949;-69
2022/05/18 01:25:21;;;;;;;1.30;1.30;;;22.50;69.60;;;;;;5047721;28;43925;-70
2022/05/18 01:27:51;;;;;;;1.10;1.10;;;22.60;69.60;;;;;;5047050;28;43910;-69
2022/05/18 01:30:19;;;;;;;1.33;1.33;;;22.50;69.30;;;;;;5046848;28;44118;-71
2022/05/18 01:32:50;;;;;;;1.20;1.20;;;22.50;69.00;;;;;;5046578;28;43947;-69
2022/05/18 01:35:19;;;;;;;1.30;1.30;;;22.30;68.70;;;;;;5047171;28;43522;-69
2022/05/18 01:37:47;;;;;;;1.10;1.10;;;22.30;68.50;;;;;;5046881;28;43612;-69
2022/05/18 01:40:20;;;;;;;1.40;1.40;;;22.20;68.70;;;;;;5046649;28;44003;-69
2022/05/18 01:42:50;;;;;;;1.20;1.20;;;22.10;69.90;;;;;;5046633;28;43490;-70
2022/05/18 01:45:19;;;;;;;1.40;1.40;;;22.10;71.80;;;;;;5028930;28;43486;-69
2022/05/18 01:47:50;;;;;;;1.57;1.57;;;22.20;71.50;;;;;;5046498;28;43763;-70
2022/05/18 01:50:21;;;;;;;1.20;1.20;;;22.30;70.80;;;;;;5039567;28;44116;-69
2022/05/18 01:52:49;;;;;;;1.20;1.20;;;22.30;70.20;;;;;;5046943;28;43894;-70
2022/05/18 01:55:17;;;;;;;1.20;1.20;;;22.30;69.80;;;;;;5047185;28;43997;-69
2022/05/18 01:57:47;;;;;;;1.20;1.20;;;22.20;69.50;;;;;;5046659;28;44017;-70
2022/05/18 02:00:16;;;;;;;1.40;1.40;;;22.10;68.80;;;;;;5046591;28;43401;-69
2022/05/18 02:02:45;;;;;;;1.40;1.40;;;22.10;69.10;;;;;;5046493;28;44043;-69
2022/05/18 02:05:13;;;;;;;2.00;1.40;;;22.00;69.20;;;;;;5046715;28;43536;-68
2022/05/18 02:07:41;;;;;;;1.20;1.20;;;22.00;69.30;;;;;;5046596;28;43838;-71
2022/05/18 02:10:10;;;;;;;1.20;1.20;;;21.90;69.70;;;;;;5046400;28;44007;-70
2022/05/18 02:12:38;;;;;;;1.20;1.20;;;21.90;71.70;;;;;;5046565;28;43361;-69
2022/05/18 02:15:07;;;;;;;1.30;1.30;;;22.00;71.90;;;;;;5046806;28;44011;-69
2022/05/18 02:17:37;;;;;;;1.40;1.40;;;22.20;71.40;;;;;;5046083;28;43942;-70
2022/05/18 02:20:07;;;;;;;1.20;1.20;;;22.30;70.30;;;;;;5046077;28;43826;-69
2022/05/18 02:22:35;;;;;;;1.70;1.60;;;22.50;69.70;;;;;;5046356;28;43966;-70
2022/05/18 02:25:03;;;;;;;1.40;1.40;;;22.60;69.20;;;;;;5046739;28;43437;-70
2022/05/18 02:27:31;;;;;;;1.20;1.20;;;22.60;69.40;;;;;;5046091;28;43897;-69
2022/05/18 02:29:59;;;;;;;1.40;1.40;;;22.50;69.40;;;;;;5027378;28;44873;-70
2022/05/18 02:32:27;;;;;;;1.40;1.40;;;22.40;69.00;;;;;;5047929;28;43811;-70
2022/05/18 02:34:55;;;;;;;1.30;1.30;;;22.30;68.60;;;;;;5049671;28;43500;-69
2022/05/18 02:37:24;;;;;;;1.50;1.50;;;22.20;68.60;;;;;;5049497;28;44719;-69
2022/05/18 02:39:52;;;;;;;1.50;1.50;;;22.10;69.90;;;;;;5049398;28;43914;-69
2022/05/18 02:42:20;;;;;;;1.40;1.40;;;22.10;71.50;;;;;;5031258;28;43354;-70
2022/05/18 02:44:48;;;;;;;1.53;1.53;;;22.20;71.50;;;;;;5050035;28;43409;-69
2022/05/18 02:47:17;;;;;;;1.20;1.20;;;22.30;70.40;;;;;;5049208;28;44091;-70
2022/05/18 02:49:45;;;;;;;1.30;1.30;;;22.30;70.10;;;;;;5049260;28;43888;-69
2022/05/18 02:52:13;;;;;;;1.40;1.40;;;22.30;70.10;;;;;;5049629;28;43511;-69
2022/05/18 02:57:27;;;;;;;1.47;1.47;;;22.10;68.90;;;;;;5049231;28;43945;-69
2022/05/18 02:59:55;;;;;;;1.40;1.40;;;22.10;69.10;;;;;;5048774;28;44111;-70
2022/05/18 03:02:23;;;;;;;1.30;1.30;;;22.00;69.20;;;;;;5049271;28;43950;-69
2022/05/18 03:04:51;;;;;;;1.30;1.30;;;22.00;69.40;;;;;;5049664;28;43387;-71
2022/05/18 03:07:19;;;;;;;1.30;1.30;;;21.90;69.60;;;;;;5048785;28;43943;-70
2022/05/18 03:09:48;;;;;;;1.30;1.30;;;21.90;71.90;;;;;;5046905;28;44958;-69
2022/05/18 03:12:16;;;;;;;1.40;1.40;;;22.00;72.10;;;;;;5049006;28;44076;-70
2022/05/18 03:14:44;;;;;;;1.50;1.40;;;22.10;71.30;;;;;;5049444;28;43881;-69
2022/05/18 03:17:13;;;;;;;1.30;1.30;;;22.40;70.60;;;;;;5047391;28;46043;-70
2022/05/18 03:19:40;;;;;;;1.23;1.23;;;22.50;69.90;;;;;;5049024;28;44044;-69
2022/05/18 03:24:55;;;;;;;1.30;1.30;;;22.50;69.70;;;;;;5049405;28;43806;-69
2022/05/18 03:27:23;;;;;;;1.20;1.20;;;22.40;69.60;;;;;;5048242;28;43898;-70
2022/05/18 03:29:51;;;;;;;1.40;1.40;;;22.30;68.70;;;;;;5048736;28;44093;-70
2022/05/18 03:32:22;;;;;;;1.43;1.43;;;22.20;68.70;;;;;;5047136;28;43881;-69
2022/05/18 03:34:50;;;;;;;1.40;1.40;;;22.10;68.80;;;;;;5048861;28;43409;-70
2022/05/18 03:37:19;;;;;;;1.50;1.50;;;22.00;69.10;;;;;;5047063;28;46566;-69
2022/05/18 03:39:46;;;;;;;1.30;1.30;;;22.00;71.60;;;;;;5030342;28;45014;-70
2022/05/18 03:42:16;;;;;;;1.30;1.30;;;22.00;71.70;;;;;;5046412;28;44379;-69
2022/05/18 03:44:43;;;;;;;1.23;1.23;;;22.20;71.30;;;;;;5049565;28;43954;-69
2022/05/18 03:47:11;;;;;;;1.60;1.60;;;22.30;70.60;;;;;;5030696;28;45735;-70
2022/05/18 03:49:39;;;;;;;1.80;1.70;;;22.30;70.50;;;;;;5049161;28;43377;-69
2022/05/18 03:52:08;;;;;;;2.60;1.87;;;22.20;70.10;;;;;;5048738;28;44028;-69
2022/05/18 03:54:36;;;;;;;3.90;2.30;;;22.20;69.30;;;;;;5049334;28;43973;-71
2022/05/18 03:57:07;;;;;;;4.57;2.40;;;22.10;69.10;;;;;;5048378;28;44033;-69
2022/05/18 03:59:37;;;;;;;4.53;2.47;;;22.00;69.20;;;;;;5046792;28;45406;-70
2022/05/18 04:02:05;;;;;;;4.60;3.00;;;22.00;69.40;;;;;;5048306;28;43944;-69
2022/05/18 04:04:33;;;;;;;5.47;3.10;;;21.90;69.50;;;;;;5030902;28;44374;-70
2022/05/18 04:07:01;;;;;;;7.33;3.43;;;21.90;69.70;;;;;;5048580;28;44352;-69
2022/05/18 04:09:29;;;;;;;7.53;3.27;;;21.90;71.90;;;;;;5048354;28;43363;-70
2022/05/18 04:11:57;;;;;;;3.50;3.20;;;22.00;72.10;;;;;;5048502;28;43394;-70
2022/05/18 04:14:25;;;;;;;5.60;3.37;;;22.10;71.60;;;;;;5046579;28;44009;-69
2022/05/18 04:16:55;;;;;;;5.03;3.27;;;22.30;70.60;;;;;;5048302;28;43952;-69
2022/05/18 04:19:23;;;;;;;5.73;3.90;;;22.50;69.60;;;;;;5048378;28;43978;-69
2022/05/18 04:21:50;;;;;;;6.13;3.60;;;22.60;69.20;;;;;;5030040;28;44018;-69
2022/05/18 04:24:18;;;;;;;4.33;3.40;;;22.60;69.30;;;;;;5048598;28;43933;-69
2022/05/18 04:26:46;;;;;;;6.83;3.60;;;22.50;69.40;;;;;;5029767;28;46069;-69
2022/05/18 04:29:14;;;;;;;5.83;3.93;;;22.40;68.80;;;;;;5029909;28;45217;-69
2022/05/18 04:31:42;;;;;;;3.87;3.33;;;22.30;68.60;;;;;;5048317;28;43962;-69
2022/05/18 04:34:11;;;;;;;5.53;3.60;;;22.20;68.70;;;;;;5048891;28;43898;-70
2022/05/18 04:36:39;;;;;;;6.70;3.80;;;22.10;69.80;;;;;;5047978;28;44649;-70
2022/05/18 04:39:07;;;;;;;7.37;4.17;;;22.10;71.10;;;;;;5048062;28;44139;-70
2022/05/18 04:41:35;;;;;;;7.27;3.80;;;22.20;71.60;;;;;;5047487;28;44166;-69
2022/05/18 04:44:03;;;;;;;6.83;3.53;;;22.30;70.80;;;;;;5048565;28;44401;-69
2022/05/18 04:46:31;;;;;;;6.63;4.07;;;22.30;70.60;;;;;;5047486;28;44959;-70
2022/05/18 04:49:00;;;;;;;4.60;4.17;;;22.30;70.90;;;;;;5047647;28;43962;-69
2022/05/18 04:51:29;;;;;;;7.60;4.10;;;22.20;69.30;;;;;;5047609;28;44040;-70
2022/05/18 04:53:57;;;;;;;5.93;3.67;;;22.10;69.00;;;;;;5029776;28;43890;-70
2022/05/18 04:56:25;;;;;;;5.13;4.13;;;22.10;69.20;;;;;;5047637;28;43925;-69
2022/05/18 04:58:53;;;;;;;4.97;3.87;;;22.00;69.30;;;;;;5046091;28;45127;-69
2022/05/18 05:01:21;;;;;;;4.70;4.00;;;22.00;69.50;;;;;;5029174;28;44068;-69
2022/05/18 05:03:49;;;;;;;4.90;3.90;;;21.90;69.60;;;;;;5047972;28;43990;-69
2022/05/18 05:06:17;;;;;;;6.30;4.40;;;21.90;71.90;;;;;;5029527;28;46156;-70
2022/05/18 05:08:46;;;;;;;5.83;4.30;;;22.00;72.20;;;;;;5029224;28;44820;-68
2022/05/18 05:11:14;;;;;;;5.30;4.77;;;22.10;71.60;;;;;;5047465;28;43988;-70
2022/05/18 05:13:42;;;;;;;6.17;4.97;;;22.30;70.90;;;;;;5029668;28;43557;-69
2022/05/18 05:16:11;;;;;;;4.70;3.70;;;22.50;70.10;;;;;;5047698;28;43946;-70
2022/05/18 05:18:42;;;;;;;4.90;3.93;;;22.60;69.40;;;;;;5047641;28;44087;-69
2022/05/18 05:21:10;;;;;;;6.20;4.60;;;22.50;69.50;;;;;;5045721;28;43968;-69
2022/05/18 05:23:38;;;;;;;4.47;4.07;;;22.50;69.50;;;;;;5047530;28;43941;-70
2022/05/18 05:26:07;;;;;;;4.73;4.27;;;22.40;69.10;;;;;;5047486;28;43941;-71
2022/05/18 05:28:35;;;;;;;4.83;4.37;;;22.30;68.70;;;;;;5047298;28;44346;-69
2022/05/18 05:31:03;;;;;;;5.87;4.30;;;22.20;68.80;;;;;;5047215;28;43961;-70
2022/05/18 05:33:31;;;;;;;4.30;4.00;;;22.10;69.30;;;;;;5045103;28;43985;-69
2022/05/18 05:35:59;;;;;;;4.67;4.27;;;22.00;71.30;;;;;;5046917;28;44022;-70
2022/05/18 05:38:27;;;;;;;4.37;4.07;;;22.10;71.40;;;;;;5047269;28;43917;-69
2022/05/18 05:40:55;;;;;;;5.07;4.57;;;22.20;71.80;;;;;;5047190;28;44066;-70
2022/05/18 05:43:24;;;;;;;4.23;3.93;;;22.30;70.60;;;;;;5046977;28;44014;-70
2022/05/18 05:45:56;;;;;;;4.20;3.83;;;22.30;70.60;;;;;;5045347;28;45951;-69
2022/05/18 05:48:24;;;;;;;4.67;4.23;;;22.20;69.30;;;;;;5028747;28;43964;-69
2022/05/18 05:50:52;;;;;;;4.40;4.00;;;22.10;69.00;;;;;;5028665;28;43416;-69
2022/05/18 05:53:20;;;;;;;4.63;4.33;;;22.00;69.00;;;;;;5029225;28;43544;-69
2022/05/18 05:55:47;;;;;;;4.47;4.13;;;22.00;69.20;;;;;;5046819;28;44021;-69
2022/05/18 05:58:16;;;;;;;4.03;3.73;;;22.00;69.50;;;;;;5046914;28;43833;-69
2022/05/18 06:00:46;;;;;;;4.60;4.30;;;21.90;69.50;;;;;;5046852;28;43909;-70
2022/05/18 06:03:14;;;;;;;4.67;4.27;;;21.90;71.80;;;;;;5047034;28;43934;-70
2022/05/18 06:05:42;;;;;;;4.63;4.27;;;22.00;71.90;;;;;;5049669;28;44096;-70
2022/05/18 06:08:10;;;;;;;4.20;3.90;;;22.10;71.70;;;;;;5053698;28;43419;-69
2022/05/18 06:10:38;;;;;;;4.27;3.97;;;22.30;70.90;;;;;;5053322;28;44035;-69
2022/05/18 06:13:06;;;;;;;5.10;4.70;;;22.50;70.40;;;;;;5053658;28;44268;-70
2022/05/18 06:15:34;;;;;;;4.47;4.17;;;22.50;69.60;;;;;;5053306;28;43740;-70
2022/05/18 06:18:03;;;;;;;4.40;4.10;;;22.50;69.80;;;;;;5051136;28;46378;-70
2022/05/18 06:20:32;;;;;;;4.00;3.80;;;22.40;69.70;;;;;;5053376;28;44071;-69
2022/05/18 06:23:02;;;;;;;4.30;3.97;;;22.30;69.00;;;;;;5053554;28;43320;-70
2022/05/18 06:25:30;;;;;;;4.27;3.97;;;22.20;68.90;;;;;;5053249;28;44049;-70
2022/05/18 06:27:57;;;;;;;3.90;3.70;;;22.10;68.80;;;;;;5052930;28;43378;-70
2022/05/18 06:30:26;;;;;;;4.43;4.20;;;22.10;69.20;;;;;;5035054;28;44093;-70
2022/05/18 06:32:54;;;;;;;4.20;3.90;;;22.00;71.60;;;;;;5053729;28;44513;-70
2022/05/18 06:35:23;;;;;;;4.63;4.27;;;22.10;71.80;;;;;;5052900;28;43669;-69
2022/05/18 06:37:51;;;;;;;4.13;3.83;;;22.20;71.00;;;;;;5053027;28;43949;-70
2022/05/18 06:40:20;;;;;;;4.33;4.00;;;22.30;70.60;;;;;;5053114;28;44033;-70
2022/05/18 06:42:48;;;;;;;4.00;3.80;;;22.20;70.30;;;;;;5034702;28;43580;-70
2022/05/18 06:45:17;;;;;;;3.90;3.67;;;22.20;70.00;;;;;;5052956;28;44801;-71
2022/05/18 06:47:47;;;;;;;4.60;4.20;;;22.10;69.50;;;;;;5052821;28;43883;-69
2022/05/18 06:50:15;;;;;;;4.10;3.80;;;22.00;69.10;;;;;;5053171;28;43352;-69
2022/05/18 06:52:44;;;;;;;3.53;3.43;;;22.00;69.30;;;;;;5053506;28;43973;-70
2022/05/18 06:55:12;;;;;;;3.90;3.80;;;22.00;69.50;;;;;;5046608;28;44008;-70
2022/05/18 06:57:40;;;;;;;3.83;3.60;;;21.90;69.50;;;;;;5046243;28;43878;-69
2022/05/18 07:00:09;;;;;;;4.03;3.77;;;21.90;71.20;;;;;;5052978;28;43992;-70
2022/05/18 07:02:37;;;;;;;3.70;3.50;;;21.90;72.00;;;;;;5046574;28;43873;-70
2022/05/18 07:05:06;;;;;;;3.73;3.53;;;22.10;72.00;;;;;;5045922;28;44761;-70
2022/05/18 07:07:33;;;;;;;3.73;3.50;;;22.20;71.40;;;;;;5046520;28;43957;-69
2022/05/18 07:10:03;;;;;;;3.70;3.50;;;22.40;70.50;;;;;;5052625;28;43910;-69
2022/05/18 07:12:32;;;;;;;4.30;4.10;;;22.50;70.40;;;;;;5053057;28;43495;-69
2022/05/18 07:15:00;;;;;;;3.80;3.60;;;22.40;69.70;;;;;;5051136;28;45831;-70
2022/05/18 07:17:28;;;;;;;3.57;3.47;;;22.40;70.10;;;;;;5050783;28;43953;-70
2022/05/18 07:20:15;;;;;;;3.50;3.30;;;22.30;69.30;;;;;;5049499;28;44388;-69
2022/05/18 07:22:45;;;;;;;4.00;3.80;;;22.20;68.90;;;;;;5049932;28;44023;-70
2022/05/18 07:25:14;;;;;;;3.70;3.60;;;22.10;68.90;;;;;;5049355;28;45156;-70
2022/05/18 07:27:42;;;;;;;3.43;3.33;;;22.10;69.10;;;;;;5049413;28;44020;-70
2022/05/18 07:30:30;;;;;;;3.90;3.70;;;22.00;71.50;;;;;;5049474;28;43950;-69
2022/05/18 07:32:59;;;;;;;3.70;3.60;;;22.10;72.20;;;;;;5049876;28;43872;-70
2022/05/18 07:35:28;;;;;;;3.57;3.47;;;22.20;71.10;;;;;;5042217;28;44077;-69
2022/05/18 07:37:57;;;;;;;3.63;3.47;;;22.30;70.70;;;;;;5048905;28;43886;-70
2022/05/18 07:40:48;;;;;;;3.10;3.00;;;22.30;70.60;;;;;;5045634;28;43886;-70
2022/05/18 07:43:17;;;;;;;3.30;3.20;;;22.20;69.80;;;;;;5049185;28;43898;-70
2022/05/18 07:45:46;;;;;;;3.80;3.50;;;22.10;69.10;;;;;;5049154;28;43831;-69
2022/05/18 07:48:19;;;;;;;3.63;3.50;;;22.10;69.30;;;;;;5049216;28;43885;-69
2022/05/18 07:50:47;;;;;;;3.60;3.40;;;22.00;69.40;;;;;;5048950;28;43396;-70
2022/05/18 07:53:15;;;;;;;3.50;3.30;;;21.90;69.50;;;;;;5049188;28;43999;-70
2022/05/18 07:55:43;;;;;;;3.07;2.97;;;21.90;69.70;;;;;;5048983;28;44008;-69
2022/05/18 07:58:13;;;;;;;3.40;3.30;;;21.90;71.30;;;;;;5049089;28;44267;-69
2022/05/18 08:00:41;;;;;;;3.37;3.27;;;21.90;71.80;;;;;;5049014;28;43983;-69
2022/05/18 08:03:09;;;;;;;3.60;3.40;;;22.00;71.90;;;;;;5049210;28;43934;-70
2022/05/18 08:05:37;;;;;;;3.67;3.47;;;22.20;71.50;;;;;;5048463;28;45121;-69
2022/05/18 08:08:06;;;;;;;3.37;3.20;;;22.40;70.60;;;;;;5048406;28;43437;-69
2022/05/18 08:16:06;;;;;;;3.03;2.93;;;22.40;69.80;;;;;;5048680;28;44391;-69
2022/05/18 08:18:34;;;;;;;2.83;2.73;;;22.30;69.30;;;;;;5047964;28;43942;-69
2022/05/18 08:21:02;;;;;;;3.20;3.10;;;22.20;69.00;;;;;;5048384;28;43941;-69
2022/05/18 08:23:30;;;;;;;3.10;3.00;;;22.10;69.10;;;;;;5048635;28;43437;-70
2022/05/18 08:25:58;;;;;;;3.10;3.00;;;22.00;69.30;;;;;;5048439;28;43957;-70
2022/05/18 08:28:28;;;;;;;3.20;3.10;;;22.00;71.80;;;;;;5046154;28;44827;-69
2022/05/18 08:30:56;;;;;;;3.10;3.00;;;22.00;72.00;;;;;;5029816;28;43863;-69
2022/05/18 08:33:24;;;;;;;3.60;3.50;;;22.10;71.60;;;;;;5030025;28;43990;-70
2022/05/18 08:35:52;;;;;;;3.17;3.07;;;22.20;71.10;;;;;;5047997;28;43979;-69
2022/05/18 08:38:20;;;;;;;3.20;3.10;;;22.20;70.90;;;;;;5048030;28;44113;-69
2022/05/18 08:40:50;;;;;;;3.07;2.97;;;22.10;69.80;;;;;;5048072;28;44036;-69
2022/05/18 08:43:22;;;;;;;3.10;3.00;;;22.10;69.50;;;;;;5047801;28;43472;-69
2022/05/18 08:46:00;;;;;;;3.17;3.07;;;22.00;69.50;;;;;;5048021;28;44001;-69
2022/05/18 08:48:38;;;;;;;3.17;3.07;;;21.90;69.60;;;;;;5046119;28;45861;-70
2022/05/18 08:51:13;;;;;;;3.37;3.23;;;21.80;69.80;;;;;;5043049;28;43946;-70
2022/05/18 08:54:07;;;;;;;3.20;3.10;;;21.80;70.00;;;;;;5031928;28;43953;-69
2022/05/18 08:56:37;;;;;;;3.20;3.10;;;21.80;71.10;;;;;;5049062;28;43850;-71
2022/05/18 08:59:07;;;;;;;3.33;3.23;;;21.80;72.20;;;;;;5047480;28;43973;-69
2022/05/18 09:01:40;;;;;;;3.30;3.20;;;22.00;72.10;;;;;;5047839;28;43431;-69
2022/05/18 09:04:10;;;;;;;2.90;2.80;;;22.20;71.70;;;;;;5047833;28;43395;-70
2022/05/18 09:06:40;;;;;;;3.13;3.03;;;22.30;70.90;;;;;;5047459;28;43909;-70
2022/05/18 09:11:55;;;;;;;2.70;2.60;;;22.50;70.30;;;;;;5043761;28;43932;-69
2022/05/18 09:14:24;;;;;;;2.53;2.50;;;22.40;69.90;;;;;;5047910;28;43931;-70
2022/05/18 09:17:09;;;;;;;2.90;2.80;;;22.20;69.10;;;;;;5045877;28;45952;-71
2022/05/18 09:19:46;;;;;;;2.83;2.73;;;22.10;69.10;;;;;;5047605;28;43349;-70
2022/05/18 09:22:21;;;;;;;2.60;2.50;;;22.10;69.50;;;;;;5029961;28;43966;-69
2022/05/18 09:25:01;;;;;;;2.60;2.60;;;21.90;69.70;;;;;;5041534;28;43956;-70
2022/05/18 09:27:43;;;;;;;2.90;2.80;;;21.90;72.00;;;;;;5047433;28;43607;-71
2022/05/18 09:30:14;;;;;;;2.90;2.80;;;22.10;72.00;;;;;;5047550;28;43898;-70
2022/05/18 09:32:51;;;;;;;2.90;2.80;;;22.20;71.70;;;;;;5029771;28;43423;-69
2022/05/18 09:35:26;;;;;;;3.07;2.97;;;22.20;71.30;;;;;;5047338;28;44124;-70
2022/05/18 09:37:55;;;;;;;2.50;2.50;;;22.20;70.00;;;;;;5040666;28;43854;-69
2022/05/18 09:40:24;;;;;;;2.60;2.53;;;22.10;69.60;;;;;;5039780;28;43941;-69
2022/05/18 09:42:54;;;;;;;2.37;2.33;;;22.00;69.50;;;;;;5040538;28;43914;-70
2022/05/18 09:45:23;;;;;;;2.73;2.73;;;22.00;69.80;;;;;;5029239;28;43930;-70
2022/05/18 09:47:56;;;;;;;2.97;2.87;;;21.90;69.90;;;;;;5046951;28;43608;-70
2022/05/18 09:50:24;;;;;;;2.90;2.80;;;21.90;70.00;;;;;;5046935;28;43981;-69
2022/05/18 09:52:52;;;;;;;2.40;2.40;;;21.90;70.20;;;;;;5047032;28;44015;-69
2022/05/18 09:55:21;;;;;;;2.87;2.77;;;21.80;72.00;;;;;;5047311;28;44012;-69
2022/05/18 09:57:52;;;;;;;2.60;2.60;;;21.90;72.20;;;;;;5047081;28;43862;-69
2022/05/18 10:00:21;;;;;;;2.67;2.57;;;22.00;71.90;;;;;;5047070;28;43874;-69
2022/05/18 10:08:29;;;;;;;2.60;2.60;;;22.50;70.20;;;;;;5033760;28;45572;-69
2022/05/18 10:10:58;;;;;;;2.33;2.33;;;22.40;69.70;;;;;;5046755;28;44086;-70
2022/05/18 10:13:28;;;;;;;2.40;2.40;;;22.30;69.00;;;;;;5046356;28;43906;-70
2022/05/18 10:16:16;;;;;;;2.60;2.50;;;22.20;69.10;;;;;;5047393;28;43803;-69
2022/05/18 10:18:46;;;;;;;2.73;2.63;;;22.10;69.30;;;;;;5046557;28;44710;-69
2022/05/18 10:21:26;;;;;;;2.70;2.70;;;22.00;69.40;;;;;;5046671;28;44546;-69
2022/05/18 10:24:02;;;;;;;2.80;2.70;;;22.00;70.40;;;;;;5040150;28;43893;-70
2022/05/18 10:26:33;;;;;;;2.73;2.63;;;22.00;72.10;;;;;;5047161;28;44048;-70
2022/05/18 10:29:02;;;;;;;2.63;2.60;;;22.10;71.70;;;;;;5046541;28;43947;-70
2022/05/18 10:31:33;;;;;;;2.40;2.40;;;22.20;71.50;;;;;;5046518;28;43986;-69
2022/05/18 10:34:17;;;;;;;3.10;2.97;;;22.20;71.00;;;;;;5046767;28;43993;-70
2022/05/18 10:36:46;;;;;;;2.23;2.23;;;22.20;70.00;;;;;;5046986;28;44020;-69
2022/05/18 10:39:19;;;;;;;2.87;2.77;;;22.10;69.50;;;;;;5046655;28;43977;-69
2022/05/18 10:41:48;;;;;;;2.70;2.70;;;22.00;69.60;;;;;;5046085;28;43922;-70
2022/05/18 10:44:21;;;;;;;2.70;2.60;;;22.00;69.90;;;;;;5044281;28;43952;-69
2022/05/18 10:46:49;;;;;;;2.50;2.50;;;22.00;70.10;;;;;;5046807;28;43909;-70
2022/05/18 10:49:27;;;;;;;2.30;2.30;;;21.90;70.20;;;;;;5046295;28;43833;-69
2022/05/18 10:51:55;;;;;;;2.33;2.33;;;21.90;70.60;;;;;;5023386;28;44833;-71
2022/05/18 10:54:25;;;;;;;2.40;2.40;;;21.90;72.20;;;;;;5037745;28;44014;-70
2022/05/18 10:56:53;;;;;;;2.20;2.20;;;22.00;72.00;;;;;;5050530;28;43949;-70
2022/05/18 10:59:37;;;;;;;2.30;2.30;;;22.20;71.60;;;;;;5049464;28;44138;-69
2022/05/18 11:02:09;;;;;;;2.53;2.53;;;22.40;70.80;;;;;;5049640;28;44033;-70
2022/05/18 11:04:49;;;;;;;2.30;2.30;;;22.50;70.80;;;;;;5049614;28;44029;-70
2022/05/18 11:07:16;;;;;;;2.30;2.30;;;22.50;70.40;;;;;;5050354;28;43448;-70
2022/05/18 11:09:47;;;;;;;2.10;2.10;;;22.40;69.90;;;;;;5049645;28;43966;-70
2022/05/18 11:12:18;;;;;;;2.50;2.50;;;22.30;69.40;;;;;;5049578;28;43988;-70
2022/05/18 11:14:47;;;;;;;2.10;2.10;;;22.20;69.50;;;;;;5049438;28;43826;-70
2022/05/18 11:17:24;;;;;;;2.13;2.13;;;22.10;69.50;;;;;;5049811;28;44087;-70
2022/05/18 11:19:56;;;;;;;2.13;2.13;;;22.10;69.90;;;;;;5043684;28;45124;-70
2022/05/18 11:22:27;;;;;;;2.40;2.40;;;22.00;72.00;;;;;;5049393;28;43981;-69
2022/05/18 11:25:03;;;;;;;2.20;2.20;;;22.10;72.00;;;;;;5049470;28;43976;-71
2022/05/18 11:27:52;;;;;;;2.27;2.27;;;22.20;71.40;;;;;;5049723;28;43369;-70
2022/05/18 11:30:20;;;;;;;2.43;2.33;;;22.30;71.10;;;;;;5049188;28;44060;-69
2022/05/18 11:32:58;;;;;;;2.23;2.13;;;22.20;70.40;;;;;;5049152;28;43748;-69
2022/05/18 11:35:35;;;;;;;2.00;2.00;;;22.10;69.80;;;;;;5024372;28;43460;-71
2022/05/18 11:38:13;;;;;;;1.90;1.90;;;22.10;69.90;;;;;;5049695;28;43361;-70
2022/05/18 11:40:44;;;;;;;2.20;2.20;;;22.00;70.00;;;;;;5049464;28;44009;-69
2022/05/18 11:43:33;;;;;;;2.30;2.30;;;22.00;70.20;;;;;;5048957;28;43463;-70
2022/05/18 11:46:09;;;;;;;2.03;2.03;;;21.90;70.20;;;;;;5049030;28;43485;-69
2022/05/18 11:48:41;;;;;;;2.20;2.20;;;21.90;70.30;;;;;;5043464;28;43941;-70
2022/05/18 11:51:13;;;;;;;2.40;2.40;;;21.90;72.20;;;;;;5048894;28;44063;-69
2022/05/18 11:53:46;;;;;;;2.00;2.00;;;22.00;72.20;;;;;;5048539;28;44079;-69
2022/05/18 11:56:22;;;;;;;2.17;2.17;;;22.10;71.70;;;;;;5049098;28;44052;-70
2022/05/18 11:59:09;;;;;;;2.33;2.33;;;22.30;71.30;;;;;;5049480;28;43957;-70
2022/05/18 12:01:40;;;;;;;2.27;2.27;;;22.50;70.40;;;;;;5030327;28;45309;-70
2022/05/18 12:04:28;;;;;;;2.10;2.10;;;22.50;70.40;;;;;;5041239;28;43935;-69
2022/05/18 12:07:03;;;;;;;2.07;2.07;;;22.50;70.00;;;;;;5044789;28;44020;-70
2022/05/18 12:09:49;;;;;;;2.20;2.20;;;22.40;69.30;;;;;;5048928;28;43408;-70
2022/05/18 12:12:19;;;;;;;1.90;1.90;;;22.30;69.20;;;;;;5048625;28;44695;-69
2022/05/18 12:14:52;;;;;;;2.23;2.23;;;22.20;69.50;;;;;;5048263;28;43954;-70
2022/05/18 12:17:22;;;;;;;1.90;1.90;;;22.10;69.70;;;;;;5042016;28;43991;-69
2022/05/18 12:19:54;;;;;;;2.00;2.00;;;22.00;69.70;;;;;;5049145;28;43985;-71
2022/05/18 12:22:24;;;;;;;1.73;1.73;;;22.00;69.90;;;;;;5030055;28;47272;-70
2022/05/18 12:24:52;;;;;;;2.10;2.10;;;22.00;70.10;;;;;;5048179;28;44124;-70
2022/05/18 12:27:21;;;;;;;2.00;2.00;;;22.00;70.20;;;;;;5048755;28;43313;-69
2022/05/18 12:29:50;;;;;;;2.00;2.00;;;22.00;70.30;;;;;;5048901;28;43961;-71
2022/05/18 12:32:18;;;;;;;1.90;1.90;;;22.00;70.30;;;;;;5047957;28;44036;-69
2022/05/18 12:34:48;;;;;;;1.93;1.87;;;22.00;70.30;;;;;;5048057;28;43965;-69
2022/05/18 12:37:26;;;;;;;2.20;2.20;;;21.90;70.20;;;;;;5048022;28;43437;-70
2022/05/18 12:40:08;;;;;;;2.20;2.10;;;21.90;70.20;;;;;;5048799;28;43977;-69
2022/05/18 12:42:42;;;;;;;1.87;1.87;;;21.90;71.70;;;;;;5048061;28;43703;-70
2022/05/18 12:45:13;;;;;;;1.83;1.83;;;22.10;71.80;;;;;;5048526;28;44040;-69
2022/05/18 12:47:43;;;;;;;1.80;1.80;;;22.30;71.20;;;;;;5048959;28;43497;-70
2022/05/18 12:50:13;;;;;;;1.90;1.90;;;22.50;70.80;;;;;;5042481;28;43828;-70
2022/05/18 12:52:52;;;;;;;1.93;1.83;;;22.70;70.00;;;;;;5042647;28;45032;-69
2022/05/18 12:55:35;;;;;;;1.90;1.90;;;22.90;69.20;;;;;;5048430;28;43758;-70
2022/05/18 12:58:23;;;;;;;1.70;1.70;;;23.10;68.50;;;;;;5030132;28;44062;-69
2022/05/18 13:00:55;;;;;;;1.97;1.97;;;23.30;68.00;;;;;;5048843;28;43905;-69
2022/05/18 13:03:38;;;;;;;1.80;1.80;;;23.40;67.50;;;;;;5048810;28;43992;-69
2022/05/18 13:06:15;;;;;;;1.83;1.70;;;23.50;66.90;;;;;;5047829;28;44152;-70
2022/05/18 13:09:01;;;;;;;2.10;2.00;;;23.50;66.60;;;;;;5046184;28;43503;-70
2022/05/18 13:11:34;;;;;;;1.80;1.80;;;23.60;66.60;;;;;;5048079;28;43428;-71
2022/05/18 13:14:30;;;;;;;2.20;2.20;;;23.50;66.60;;;;;;5043814;28;43994;-71
2022/05/18 13:17:06;;;;;;;2.17;2.10;;;23.40;67.50;;;;;;5047376;28;43915;-70
2022/05/18 13:19:35;;;;;;;1.70;1.70;;;23.20;67.70;;;;;;5029613;28;44372;-69
2022/05/18 13:22:08;;;;;;;1.77;1.77;;;23.00;67.50;;;;;;5048251;28;43764;-70
2022/05/18 13:24:39;;;;;;;1.90;1.90;;;22.80;67.70;;;;;;5047415;28;45107;-70